Terminal Aerodrome Forecast
Issued by NWS

Home | Current Version | Previous Version | Text Only | Print | Product List | Glossary On
Versions: 1 2 3 4 5 6 7 8 9 10 11 12 13 14 15 16 17 18 19 20 21 22 23 24 25 26 27 28 29
000
FTUS44 KOUN 220540
TAFHBR
TAF
KHBR 220540Z 2206/2306 17012KT 6SM BR SCT004
     FM220900 17006KT 3SM BR SCT004
     FM221100 30007KT 2SM BR BKN004
     FM221300 33014KT P6SM BKN060
     FM221500 33020G30KT P6SM FEW100
     FM222300 30007KT P6SM BKN250=

USA.gov is the U.S. government's official web portal to all federal, state and local government web resources and services.